Terminal Aerodrome Forecast
Issued by NWS

Home | Current Version | Previous Version | Text Only | Print | Product List | Glossary On
Versions: 1 2 3 4 5 6 7 8 9 10 11 12 13
000
FTUS46 KLOX 182340
TAFPMD
TAF
KPMD 182340Z 1900/1924 30011KT P6SM BKN120
     FM190300 25008KT P6SM SKC
     FM191500 23011KT P6SM SKC
     FM191800 27016G23KT P6SM SKC
     FM192100 27020G28KT P6SM SKC=

USA.gov is the U.S. government's official web portal to all federal, state and local government web resources and services.